Historyczne dane pomiarowe

Dodano dane terminowe – wersja testowa.

Dane z okresu 1951-2019

Wersja bazy: 1.34 [2019-03-16, lista zmian], aktualizacja planowana na 2019-04-15

Dane meteo z obszaru Polski uzyskane na podstawie danych udostępnionych przez Instytut Meteorologii i Gospodarki Wodnej – Państwowy Instytut Badawczy.

 

Wybierz Datę:    

       

TemperaturaWilgotnośćWiatrCiśnienieOpadyŚniegCzas trwania zjawisk
 Stacja t tx tn tng RH VA  wxwx mslp ppp RRR   cm mm wxwxwxwxwxwxwx
1987-08-14 14.0 18.7 8.7 7.3 94.8- 8.0 2.0---- 0.7------------
1987-08-13 14.3 21.3 5.8 3.2 71.0- 3.0 1.3---- 0.3------------
1987-08-12 12.7 18.2 7.3 5.8 76.3- 5.0 2.0---- 0.0------------
1987-08-11 13.0 17.0 10.9 10.2 85.5- 7.0 2.3---- 5.6------------
1987-08-10 14.0 18.7 12.7 12.6 93.5- 8.0 2.0---- 7.4------------
1987-08-09 17.1 23.8 10.7 8.3 73.8- 3.7 3.0---- 21.2------------
1987-08-08 14.6 21.0 6.8 3.7 74.3- 5.3 3.3---- 0.0------------
1987-08-07 12.6 19.0 6.6 5.4 72.5- 3.3 2.7---- 0.0------------
1987-08-06 10.9 14.2 8.4 7.7 87.8- 7.0 3.7---- 0.4------------
1987-08-05 12.6 16.2 8.3 7.4 81.5- 4.7 3.3---- 0.0------------
1987-08-04 13.7 16.8 10.9 9.8 82.3- 5.7 4.3---- 4.2------------
1987-08-03 13.7 18.8 9.2 9.0 78.8- 6.7 2.7---- 2.6------------
1987-08-02 13.1 16.8 10.2 9.4 81.0- 5.7 5.0---- 2.8------------
1987-08-01 14.8 16.6 13.9 13.5 90.0- 8.0 3.7---- 10.2------------
1987-07-31 15.4 20.6 12.7 13.5 84.5- 7.7 3.0---- 0.5------------
1987-07-30 17.9 25.1 9.9 9.0 76.3- 7.3 1.7---- 4.0------------
1987-07-29 14.0 17.6 9.7 9.2 77.3- 7.0 2.3---- 0.0------------
1987-07-28 13.4 15.6 11.7 12.0 81.5- 8.0 3.0---- 0.1------------
1987-07-27 12.6 17.5 8.4 7.7 74.8- 8.0 4.3---- 2.6------------
1987-07-26 13.3 16.4 9.3 9.0 72.0- 4.7 4.7---- 0.0------------
1987-07-25 15.6 21.7 13.4 13.0 84.0- 6.7 3.3---- 0.0------------
1987-07-24 19.3 23.3 14.1 12.8 75.3- 3.7 3.3---- 0.0------------
1987-07-23 19.4 25.3 11.7 12.3 80.3- 5.0 2.3---- 4.8------------
1987-07-22 19.2 23.3 14.7 14.0 83.0- 5.0 2.3---- 0.0------------
1987-07-21 19.3 25.1 12.7 11.1 81.0- 5.3 2.3---- 7.0------------
1987-07-20 18.3 22.5 14.2 14.7 82.3- 5.0 2.0---- 0.0------------
1987-07-19 19.0 23.4 15.5 13.5 88.0- 6.7 2.3---- 10.2------------
1987-07-18 21.3 25.7 16.0 15.0 85.3- 6.0 2.7---- 0.2------------
1987-07-17 20.4 27.9 15.7 15.0 76.0- 4.0 5.0---- 10.9------------
1987-07-16 18.4 23.8 11.4 11.5 69.8- 6.3 3.7---- 0.0------------
1987-07-15 17.0 23.6 9.7 6.9 67.0- 2.0 3.7---- 0.0------------
1987-07-14 16.2 22.0 8.9 6.7 70.0- 1.7 2.3---- 0.0------------
1987-07-13 16.0 19.8 11.5 10.0 73.5- 5.0 3.7---- 0.0------------
1987-07-12 18.3 23.0 13.5 13.3 79.8- 7.0 2.7---- 0.9------------
1987-07-11 17.0 23.5 10.0 10.0 73.8- 8.0 3.0---- 6.1------------
1987-07-10 14.4 18.0 9.0 9.0 67.5- 3.7 4.7---- 0.0------------
1987-07-09 15.9 19.9 13.3 15.2 85.8- 7.3 2.7---- 2.5------------
1987-07-08 20.3 27.5 15.2 12.6 79.3- 7.3 2.3---- 4.7------------
1987-07-07 20.9 28.4 11.2 9.5 65.0- 0.3 2.3---- 0.0------------
1987-07-06 19.0 25.1 9.9 8.1 64.5- 0.0 1.7---- 0.0------------
1987-07-05 16.5 21.5 9.3 8.0 67.8- 1.0 4.0---- 0.0------------
1987-07-04 17.5 22.2 10.7 10.0 68.3- 4.3 3.3---- 0.0------------
1987-07-03 18.2 22.3 11.2 10.0 69.3- 1.7 2.7---- 0.0------------
1987-07-02 18.9 22.7 13.2 12.6 74.3- 4.3 1.7---- 0.0------------
1987-07-01 22.6 30.9 19.2 16.6 82.3- 5.3 3.3---- 37.0------------
1987-06-30 24.9 31.1 16.4 14.5 73.3- 0.3 2.3---- 0.0------------
1987-06-29 20.5 27.1 12.2 10.5 79.5- 5.0 2.0---- 0.0------------
1987-06-28 18.5 21.5 14.2 12.0 78.5- 7.3 4.3---- 0.0------------
1987-06-27 18.0 22.0 14.6 14.8 71.5- 5.3 3.0---- 0.0------------
1987-06-26 17.3 22.5 9.8 10.1 70.5- 4.3 3.0---- 0.6------------
1987-06-25 14.2 17.2 10.0 10.4 80.0- 7.0 2.7---- 0.1------------
1987-06-24 14.7 19.4 11.4 10.5 78.0- 6.3 2.7---- 28.5------------
1987-06-23 15.8 20.2 10.9 11.0 78.5- 7.7 2.7---- 4.4------------
1987-06-22 15.0 17.5 13.2 13.0 84.8- 7.3 3.0---- 1.3------------
1987-06-21 17.7 23.9 10.2 8.2 74.8- 5.0 4.3---- 2.5------------
1987-06-20 14.2 20.2 7.7 5.3 79.8- 6.0 4.0---- 1.4------------
1987-06-19 12.6 17.4 8.6 7.9 74.8- 5.7 3.0---- 0.0------------
1987-06-18 11.1 15.0 7.4 4.8 76.3- 5.3 5.0---- 2.5------------
1987-06-17 12.3 15.7 10.2 9.8 65.3- 5.3 3.7---- 0.0------------
1987-06-16 11.4 22.3 9.5 9.3 87.3- 8.0 5.7---- 0.0------------
379.1 ms

 

Źródłem pochodzenia danych jest Instytut Meteorologii i Gospodarki Wodnej – Państwowy Instytut Badawczy. Dane Instytutu Meteorologii i Gospodarki Wodnej – Państwowego Instytutu Badawczego zostały przetworzone.

Dane źródłowe można odnaleźć na stronie https://dane.imgw.pl